Time;durP1;ratioP1;P1;durP2;ratioP2;P2;SDS_P1;SDS_P2;PMS_P1;PMS_P2;Temp;Humidity;BMP_temperature;BMP_pressure;BME280_temperature;BME280_humidity;BME280_pressure;Samples;Min_cycle;Max_cycle;Signal;HPM_P1;HPM_P2
2022/09/10 00:01:32;;;;;;;35.45;19.42;;;;;;;;;;6299433;28;20143;-60
2022/09/10 00:04:33;;;;;;;39.30;20.92;;;;;;;;;;6296123;28;20799;-57
2022/09/10 00:07:33;;;;;;;34.28;18.73;;;;;;;;;;6295310;28;20090;-59
2022/09/10 00:10:38;;;;;;;31.33;17.17;;;;;;;;;;6297787;28;20049;-59
2022/09/10 00:13:40;;;;;;;35.95;18.55;;;;;;;;;;6295768;28;20487;-59
2022/09/10 00:16:41;;;;;;;34.70;18.77;;;;;;;;;;6296862;28;20036;-60
2022/09/10 00:19:42;;;;;;;34.83;19.40;;;;;;;;;;6297763;28;20048;-58
2022/09/10 00:22:43;;;;;;;35.83;19.58;;;;;;;;;;6297833;28;20313;-59
2022/09/10 00:25:45;;;;;;;38.07;19.97;;;;;;;;;;6297243;28;20521;-58
2022/09/10 00:28:45;;;;;;;36.95;19.48;;;;;;;;;;6293274;28;20066;-59
2022/09/10 00:31:46;;;;;;;38.67;19.50;;;;;;;;;;6298062;28;20515;-59
2022/09/10 00:34:47;;;;;;;38.20;19.65;;;;;;;;;;6300632;28;20072;-56
2022/09/10 00:37:48;;;;;;;37.87;20.20;;;;;;;;;;6293524;28;20601;-54
2022/09/10 00:40:48;;;;;;;34.80;19.47;;;;;;;;;;6297855;28;20103;-58
2022/09/10 00:43:58;;;;;;;32.05;18.70;;;;;;;;;;6295780;28;20139;-58
2022/09/10 00:46:58;;;;;;;41.05;21.52;;;;;;;;;;6295521;28;20519;-59
2022/09/10 00:50:18;;;;;;;53.08;27.50;;;;;;;;;;6296730;28;20139;-56
2022/09/10 00:53:27;;;;;;;51.47;27.40;;;;;;;;;;6296040;28;20059;-58
2022/09/10 00:56:28;;;;;;;51.97;27.23;;;;;;;;;;6297603;28;20064;-58
2022/09/10 00:59:29;;;;;;;53.03;27.80;;;;;;;;;;6297531;28;20053;-59
2022/09/10 01:02:30;;;;;;;48.92;25.35;;;;;;;;;;6297641;28;20104;-58
2022/09/10 01:05:32;;;;;;;47.97;24.75;;;;;;;;;;6297187;28;20040;-56
2022/09/10 01:08:33;;;;;;;52.28;27.15;;;;;;;;;;6293057;28;20124;-59
2022/09/10 01:12:11;;;;;;;56.22;27.10;;;;;;;;;;6297155;28;20078;-57
2022/09/10 01:15:34;;;;;;;47.92;26.85;;;;;;;;;;6297708;28;20173;-59
2022/09/10 01:18:58;;;;;;;50.85;26.70;;;;;;;;;;6297038;28;20067;-57
2022/09/10 01:22:16;;;;;;;50.20;25.88;;;;;;;;;;6284421;28;20056;-60
2022/09/10 01:25:32;;;;;;;50.40;25.27;;;;;;;;;;6295824;28;20510;-59
2022/09/10 01:28:47;;;;;;;53.65;26.33;;;;;;;;;;6298380;28;20178;-58
2022/09/10 01:32:01;;;;;;;50.70;26.42;;;;;;;;;;6294962;28;20044;-58
2022/09/10 01:35:29;;;;;;;48.08;25.55;;;;;;;;;;6307538;28;20051;-59
2022/09/10 01:38:37;;;;;;;41.92;22.60;;;;;;;;;;6305551;28;20082;-57
2022/09/10 01:41:38;;;;;;;42.72;22.83;;;;;;;;;;6293923;28;20072;-58
2022/09/10 01:44:46;;;;;;;44.33;23.63;;;;;;;;;;6290678;28;20068;-56
2022/09/10 01:48:05;;;;;;;46.75;23.80;;;;;;;;;;6292706;28;20532;-58
2022/09/10 01:51:23;;;;;;;59.22;27.67;;;;;;;;;;6289657;28;20052;-60
2022/09/10 01:54:55;;;;;;;54.30;26.30;;;;;;;;;;6296023;28;20479;-55
2022/09/10 01:58:18;;;;;;;44.35;23.95;;;;;;;;;;6294623;28;20235;-57
2022/09/10 02:01:28;;;;;;;41.53;22.17;;;;;;;;;;6295016;28;20134;-55
2022/09/10 02:04:29;;;;;;;40.83;22.42;;;;;;;;;;6293888;28;20139;-59
2022/09/10 02:07:32;;;;;;;42.80;21.40;;;;;;;;;;6292528;28;20049;-54
2022/09/10 02:10:33;;;;;;;39.60;20.95;;;;;;;;;;6292690;28;20041;-58
2022/09/10 02:13:34;;;;;;;41.38;21.67;;;;;;;;;;6293596;28;20052;-56
2022/09/10 02:16:39;;;;;;;30.53;17.30;;;;;;;;;;6301724;28;20048;-58
2022/09/10 02:19:40;;;;;;;29.77;17.00;;;;;;;;;;6300805;28;20071;-59
2022/09/10 02:22:47;;;;;;;23.63;12.98;;;;;;;;;;6302547;28;20084;-59
2022/09/10 02:25:49;;;;;;;24.50;12.07;;;;;;;;;;6301530;28;20551;-59
2022/09/10 02:28:49;;;;;;;23.13;11.90;;;;;;;;;;6302832;28;20245;-54
2022/09/10 02:31:50;;;;;;;22.67;10.70;;;;;;;;;;6306306;28;20539;-58
2022/09/10 02:34:50;;;;;;;17.33;10.07;;;;;;;;;;6300817;28;20491;-56
2022/09/10 02:37:52;;;;;;;19.33;9.77;;;;;;;;;;6304701;28;20128;-56
2022/09/10 02:40:54;;;;;;;16.77;9.70;;;;;;;;;;6303551;28;20052;-54
2022/09/10 02:43:55;;;;;;;16.05;8.43;;;;;;;;;;6303413;28;20050;-58
2022/09/10 02:46:55;;;;;;;15.98;7.60;;;;;;;;;;6305069;28;20052;-59
2022/09/10 02:49:56;;;;;;;12.40;6.53;;;;;;;;;;6302600;28;20491;-58
2022/09/10 02:52:56;;;;;;;13.32;5.93;;;;;;;;;;6300780;28;20051;-54
2022/09/10 02:55:57;;;;;;;8.45;5.47;;;;;;;;;;6305047;28;20555;-58
2022/09/10 02:58:58;;;;;;;7.78;4.75;;;;;;;;;;6303134;28;20055;-59
2022/09/10 03:01:59;;;;;;;7.07;4.63;;;;;;;;;;6305280;28;20051;-59
2022/09/10 03:04:59;;;;;;;9.35;4.55;;;;;;;;;;6310617;28;20135;-60
2022/09/10 03:08:00;;;;;;;8.88;4.28;;;;;;;;;;6302995;28;20089;-59
2022/09/10 03:11:00;;;;;;;8.23;4.45;;;;;;;;;;6304841;28;20044;-55
2022/09/10 03:14:01;;;;;;;7.45;4.43;;;;;;;;;;6304074;28;20490;-54
2022/09/10 03:17:02;;;;;;;7.10;4.10;;;;;;;;;;6303265;28;20072;-60
2022/09/10 03:20:04;;;;;;;7.68;4.20;;;;;;;;;;6300521;28;20051;-56
2022/09/10 03:23:04;;;;;;;6.97;4.00;;;;;;;;;;6301179;28;20045;-59
2022/09/10 03:26:05;;;;;;;7.15;3.78;;;;;;;;;;6302432;28;20296;-57
2022/09/10 03:29:05;;;;;;;8.63;4.20;;;;;;;;;;6319709;28;20040;-58
2022/09/10 03:32:07;;;;;;;6.90;3.90;;;;;;;;;;6318999;28;20044;-59
2022/09/10 03:35:08;;;;;;;6.57;4.03;;;;;;;;;;6310524;28;20087;-59
2022/09/10 03:38:10;;;;;;;7.93;4.40;;;;;;;;;;6298308;28;20136;-56
2022/09/10 03:41:10;;;;;;;8.48;4.47;;;;;;;;;;6283333;28;20475;-53
2022/09/10 03:44:11;;;;;;;7.70;4.72;;;;;;;;;;6298975;28;20410;-56
2022/09/10 03:47:12;;;;;;;10.32;4.82;;;;;;;;;;6298631;28;20465;-57
2022/09/10 03:50:12;;;;;;;9.35;4.55;;;;;;;;;;6301170;28;20051;-59
2022/09/10 03:53:14;;;;;;;10.27;4.75;;;;;;;;;;6308325;28;20074;-59
2022/09/10 03:56:18;;;;;;;9.63;5.07;;;;;;;;;;6279289;28;20135;-57
2022/09/10 03:59:19;;;;;;;14.05;6.45;;;;;;;;;;6295932;28;20077;-58
2022/09/10 04:02:19;;;;;;;10.48;6.35;;;;;;;;;;6300877;28;20040;-54
2022/09/10 04:05:20;;;;;;;9.38;5.82;;;;;;;;;;6311353;28;20055;-58
2022/09/10 04:08:20;;;;;;;9.95;5.97;;;;;;;;;;6312591;28;20142;-59
2022/09/10 04:11:26;;;;;;;11.98;5.95;;;;;;;;;;6300782;28;20048;-59
2022/09/10 04:14:26;;;;;;;11.02;6.55;;;;;;;;;;6294925;28;20143;-56
2022/09/10 04:17:27;;;;;;;12.85;6.25;;;;;;;;;;6297906;28;21103;-55
2022/09/10 04:20:27;;;;;;;11.10;6.85;;;;;;;;;;6298351;28;20135;-60
2022/09/10 04:23:28;;;;;;;13.60;6.57;;;;;;;;;;6295714;28;20044;-59
2022/09/10 04:26:31;;;;;;;11.18;6.30;;;;;;;;;;6299723;28;20556;-57
2022/09/10 04:29:32;;;;;;;14.10;6.38;;;;;;;;;;6307799;28;20036;-59
2022/09/10 04:32:32;;;;;;;11.15;5.85;;;;;;;;;;6294059;28;20051;-56
2022/09/10 04:35:33;;;;;;;9.93;6.15;;;;;;;;;;6305007;28;20044;-59
2022/09/10 04:38:38;;;;;;;9.55;5.68;;;;;;;;;;6281404;28;20079;-54
2022/09/10 04:41:39;;;;;;;10.65;6.38;;;;;;;;;;6302002;28;20048;-59
2022/09/10 04:44:40;;;;;;;11.95;7.43;;;;;;;;;;6294881;28;20056;-55
2022/09/10 04:47:40;;;;;;;11.77;7.28;;;;;;;;;;6299333;28;20124;-57
2022/09/10 04:50:40;;;;;;;13.90;7.25;;;;;;;;;;6295617;28;20467;-53
2022/09/10 04:53:41;;;;;;;15.15;7.78;;;;;;;;;;6294132;28;20044;-59
2022/09/10 04:56:42;;;;;;;13.27;7.65;;;;;;;;;;6297928;28;20131;-56
2022/09/10 04:59:43;;;;;;;14.20;8.38;;;;;;;;;;6296219;28;20569;-55
2022/09/10 05:02:45;;;;;;;14.70;7.90;;;;;;;;;;6298103;28;20174;-58
2022/09/10 05:05:46;;;;;;;;;;;;;;;;;;6295778;28;20135;-56
2022/09/10 05:08:48;;;;;;;12.30;7.53;;;;;;;;;;6297057;28;19920;-59
2022/09/10 05:11:49;;;;;;;14.40;8.15;;;;;;;;;;6296081;28;20048;-56
2022/09/10 05:14:49;;;;;;;14.90;8.38;;;;;;;;;;6300567;28;20044;-59
2022/09/10 05:17:50;;;;;;;15.85;9.20;;;;;;;;;;6294497;28;20052;-59
2022/09/10 05:20:51;;;;;;;18.17;10.17;;;;;;;;;;6303611;28;20076;-58
2022/09/10 05:23:51;;;;;;;16.58;10.43;;;;;;;;;;6293323;28;20045;-58
2022/09/10 05:26:52;;;;;;;19.77;11.20;;;;;;;;;;6294182;28;20040;-58
2022/09/10 05:29:52;;;;;;;20.85;12.05;;;;;;;;;;6293291;28;20753;-54
2022/09/10 05:32:53;;;;;;;21.77;12.32;;;;;;;;;;6298575;28;20052;-55
2022/09/10 05:35:53;;;;;;;21.25;12.13;;;;;;;;;;6299180;28;20143;-53
2022/09/10 05:38:54;;;;;;;23.25;12.30;;;;;;;;;;6292024;28;20139;-57
2022/09/10 05:41:54;;;;;;;23.27;10.77;;;;;;;;;;6297681;28;20055;-58
2022/09/10 05:44:55;;;;;;;19.50;10.65;;;;;;;;;;6299603;28;20076;-55
2022/09/10 05:47:56;;;;;;;21.55;11.05;;;;;;;;;;6302393;28;20092;-60
2022/09/10 05:50:56;;;;;;;21.73;12.05;;;;;;;;;;6293368;28;20490;-58
2022/09/10 05:53:57;;;;;;;21.13;11.70;;;;;;;;;;6290195;28;20472;-57
2022/09/10 05:56:58;;;;;;;25.90;13.45;;;;;;;;;;6295871;28;20051;-59
2022/09/10 06:00:00;;;;;;;27.30;14.32;;;;;;;;;;6295153;28;20048;-59
